Time;durP1;ratioP1;P1;durP2;ratioP2;P2;SDS_P1;SDS_P2;PMS_P1;PMS_P2;Temp;Humidity;BMP_temperature;BMP_pressure;BME280_temperature;BME280_humidity;BME280_pressure;Samples;Min_cycle;Max_cycle;Signal;HPM_P1;HPM_P2
2022/08/07 00:01:36;;;;;;;5.97;4.30;;;;;;;10.72;100.00;102171.25;5105014;28;20039;-76
2022/08/07 00:04:02;;;;;;;6.13;3.80;;;;;;;10.74;100.00;102171.13;5105397;28;20031;-75
2022/08/07 00:06:28;;;;;;;8.05;4.00;;;;;;;10.69;100.00;102157.31;5105331;28;20811;-75
2022/08/07 00:08:53;;;;;;;8.93;4.40;;;;;;;10.71;100.00;102163.38;5106526;28;20099;-74
2022/08/07 00:11:18;;;;;;;5.90;4.07;;;;;;;10.68;100.00;102164.47;5104835;28;20034;-75
2022/08/07 00:13:46;;;;;;;10.07;5.00;;;;;;;10.72;100.00;102162.38;5106534;28;20028;-74
2022/08/07 00:16:12;;;;;;;10.48;3.80;;;;;;;10.72;100.00;102165.06;5105063;28;20101;-75
2022/08/07 00:18:38;;;;;;;6.28;4.53;;;;;;;10.66;100.00;102149.56;5104861;28;20033;-75
2022/08/07 00:21:07;;;;;;;8.48;4.68;;;;;;;10.68;100.00;102152.94;5087602;28;20023;-75
2022/08/07 00:23:34;;;;;;;6.40;3.88;;;;;;;10.64;100.00;102156.84;5105261;28;20113;-75
2022/08/07 00:26:01;;;;;;;6.05;4.10;;;;;;;10.58;100.00;102139.50;5106297;28;20110;-75
2022/08/07 00:28:28;;;;;;;8.18;3.83;;;;;;;10.58;100.00;102147.50;5104956;28;20042;-75
2022/08/07 00:30:54;;;;;;;7.82;4.45;;;;;;;10.55;100.00;102135.25;5105428;28;20126;-76
2022/08/07 00:33:21;;;;;;;8.40;4.23;;;;;;;10.51;100.00;102133.84;5104855;28;20156;-75
2022/08/07 00:35:46;;;;;;;5.93;4.22;;;;;;;10.48;100.00;102133.25;5106374;28;20027;-75
2022/08/07 00:38:11;;;;;;;8.67;4.10;;;;;;;10.44;100.00;102134.47;5088076;28;20051;-76
2022/08/07 00:40:37;;;;;;;6.77;4.80;;;;;;;10.45;100.00;102139.69;5104573;28;20019;-75
2022/08/07 00:43:03;;;;;;;11.23;5.15;;;;;;;10.34;100.00;102142.41;5088052;28;20043;-74
2022/08/07 00:45:29;;;;;;;7.83;4.47;;;;;;;10.38;100.00;102151.00;5087788;28;20015;-74
2022/08/07 00:47:54;;;;;;;9.95;3.88;;;;;;;10.33;100.00;102148.72;5104727;28;20039;-75
2022/08/07 00:50:20;;;;;;;9.82;4.63;;;;;;;10.32;100.00;102147.00;5087198;28;20024;-75
2022/08/07 00:52:45;;;;;;;7.60;5.67;;;;;;;10.26;100.00;102139.50;5108225;28;20505;-75
2022/08/07 00:55:11;;;;;;;11.03;4.67;;;;;;;10.26;100.00;102143.00;5091846;28;20280;-75
2022/08/07 00:57:36;;;;;;;10.80;5.50;;;;;;;10.27;100.00;102142.00;5109104;28;20114;-75
2022/08/07 01:00:07;;;;;;;8.07;4.38;;;;;;;10.22;100.00;102138.88;5109297;28;20036;-75
2022/08/07 01:02:33;;;;;;;12.02;6.18;;;;;;;10.15;100.00;102143.88;5102153;28;20601;-74
2022/08/07 01:04:58;;;;;;;10.70;4.88;;;;;;;10.11;100.00;102139.78;5091627;28;20039;-74
2022/08/07 01:07:26;;;;;;;7.78;4.75;;;;;;;10.09;100.00;102147.06;5108548;28;20035;-75
2022/08/07 01:09:51;;;;;;;9.60;4.50;;;;;;;10.02;100.00;102145.88;5108199;28;20043;-75
2022/08/07 01:12:17;;;;;;;8.00;5.00;;;;;;;10.01;100.00;102140.66;5091353;28;20467;-75
2022/08/07 01:14:43;;;;;;;9.15;5.18;;;;;;;10.08;100.00;102152.50;5091621;28;21197;-74
2022/08/07 01:17:09;;;;;;;8.52;6.18;;;;;;;10.08;100.00;102153.34;5091499;28;20036;-75
2022/08/07 01:19:36;;;;;;;11.23;5.00;;;;;;;10.04;100.00;102149.22;5108092;28;20472;-75
2022/08/07 01:22:02;;;;;;;8.35;4.82;;;;;;;10.01;100.00;102141.47;5090158;28;20085;-75
2022/08/07 01:24:32;;;;;;;7.70;4.68;;;;;;;10.03;100.00;102144.03;5100335;28;20028;-75
2022/08/07 01:26:59;;;;;;;6.43;4.20;;;;;;;9.97;100.00;102129.34;5108120;28;20023;-74
2022/08/07 01:29:29;;;;;;;7.72;4.60;;;;;;;10.01;100.00;102138.81;5105406;28;20023;-75
2022/08/07 01:31:54;;;;;;;10.40;5.22;;;;;;;10.03;100.00;102133.38;5108037;28;20604;-74
2022/08/07 01:34:20;;;;;;;7.05;4.63;;;;;;;10.01;100.00;102136.16;5091188;28;20047;-75
2022/08/07 01:36:48;;;;;;;6.65;5.05;;;;;;;10.03;100.00;102141.38;5108177;28;20106;-75
2022/08/07 01:39:17;;;;;;;14.02;6.05;;;;;;;10.01;100.00;102152.16;5091151;28;20027;-75
2022/08/07 01:41:54;;;;;;;8.20;5.60;;;;;;;9.99;100.00;102159.44;5089266;28;20035;-75
2022/08/07 01:44:22;;;;;;;10.48;5.68;;;;;;;9.89;100.00;102150.50;5092152;27;20051;-75
2022/08/07 01:46:47;;;;;;;7.47;5.03;;;;;;;9.83;100.00;102151.84;5094771;28;20135;-75
2022/08/07 01:49:13;;;;;;;7.78;4.80;;;;;;;9.80;100.00;102145.91;5090264;28;20104;-75
2022/08/07 01:51:42;;;;;;;8.60;5.10;;;;;;;9.76;100.00;102142.59;5106924;28;20112;-75
2022/08/07 01:54:10;;;;;;;9.15;4.68;;;;;;;9.75;100.00;102129.41;5108296;28;20027;-75
2022/08/07 01:57:04;;;;;;;7.55;4.57;;;;;;;9.77;100.00;102138.16;5107167;28;20022;-75
2022/08/07 01:59:53;;;;;;;7.65;5.18;;;;;;;9.71;100.00;102126.97;5082813;28;20023;-75
2022/08/07 02:02:27;;;;;;;9.20;4.70;;;;;;;9.72;100.00;102130.50;5087864;28;20066;-75
2022/08/07 02:05:05;;;;;;;10.50;5.60;;;;;;;9.69;100.00;102122.75;5089949;28;20028;-74
2022/08/07 02:07:45;;;;;;;8.23;5.40;;;;;;;9.70;100.00;102130.63;5087971;28;20479;-75
2022/08/07 02:10:13;;;;;;;10.63;4.95;;;;;;;9.64;100.00;102120.44;5105999;28;20458;-75
2022/08/07 02:12:42;;;;;;;8.75;5.07;;;;;;;9.65;100.00;102122.16;5089763;28;20047;-75
2022/08/07 02:15:13;;;;;;;8.93;4.88;;;;;;;9.62;100.00;102113.53;5090024;28;20426;-75
2022/08/07 02:17:42;;;;;;;10.32;4.80;;;;;;;9.61;100.00;102111.84;5106677;28;20110;-75
2022/08/07 02:20:10;;;;;;;8.60;5.10;;;;;;;9.61;100.00;102111.84;5104265;28;20113;-74
2022/08/07 02:22:38;;;;;;;9.30;4.97;;;;;;;9.57;100.00;102105.06;5106434;28;20027;-75
2022/08/07 02:25:09;;;;;;;7.57;4.80;;;;;;;9.59;100.00;102114.63;5106211;28;20019;-75
2022/08/07 02:27:37;;;;;;;9.70;5.93;;;;;;;9.63;100.00;102120.59;5106304;28;20020;-75
2022/08/07 02:30:05;;;;;;;8.70;4.97;;;;;;;9.63;100.00;102121.44;5122480;27;20377;-75
2022/08/07 02:32:37;;;;;;;10.88;6.30;;;;;;;9.62;100.00;102119.75;5107732;28;20054;-75
2022/08/07 02:35:06;;;;;;;9.32;5.30;;;;;;;9.62;100.00;102122.41;5107457;28;20149;-75
2022/08/07 02:37:34;;;;;;;7.72;4.97;;;;;;;9.56;100.00;102119.38;5099545;28;20023;-75
2022/08/07 02:40:04;;;;;;;9.20;5.95;;;;;;;9.54;100.00;102116.00;5101630;28;20522;-75
2022/08/07 02:42:32;;;;;;;8.35;5.35;;;;;;;9.48;100.00;102122.63;5099193;28;20468;-75
2022/08/07 02:45:01;;;;;;;8.15;5.15;;;;;;;9.51;100.00;102125.06;5097687;28;20447;-75
2022/08/07 02:47:28;;;;;;;8.50;5.38;;;;;;;9.50;100.00;102118.91;5105963;28;20026;-74
2022/08/07 02:50:04;;;;;;;8.68;5.15;;;;;;;9.48;100.00;102118.19;5105475;28;20122;-75
2022/08/07 02:52:37;;;;;;;13.48;5.82;;;;;;;9.43;100.00;102117.66;5099592;28;20093;-75
2022/08/07 02:55:12;;;;;;;14.18;6.25;;;;;;;9.42;100.00;102101.81;5089096;28;20104;-74
2022/08/07 02:57:39;;;;;;;6.95;5.07;;;;;;;9.42;100.00;102112.47;5092000;28;20062;-74
2022/08/07 03:00:06;;;;;;;8.52;5.68;;;;;;;9.37;100.00;102110.19;5088118;28;20039;-75
2022/08/07 03:02:35;;;;;;;12.82;6.15;;;;;;;9.37;100.00;102109.34;5086164;28;20040;-74
2022/08/07 03:05:03;;;;;;;11.43;7.05;;;;;;;9.29;100.00;102108.13;5105624;28;20089;-75
2022/08/07 03:07:29;;;;;;;;;;;;;;;9.29;100.00;102108.13;5116009;27;20034;-74
2022/08/07 03:09:55;;;;;;;;;;;;;;;9.27;100.00;102109.19;5105679;28;20272;-75
2022/08/07 03:12:20;;;;;;;6.73;4.33;;;;;;;9.24;100.00;102098.78;5105667;28;19912;-75
2022/08/07 03:14:46;;;;;;;12.03;5.83;;;;;;;9.17;100.00;102090.41;5121669;27;20268;-75
2022/08/07 03:17:11;;;;;;;8.27;4.90;;;;;;;9.13;100.00;102086.31;5088279;28;20035;-75
2022/08/07 03:19:37;;;;;;;9.60;5.22;;;;;;;9.04;100.00;102087.88;5104697;28;20364;-75
2022/08/07 03:22:07;;;;;;;9.27;5.65;;;;;;;9.04;100.00;102090.53;5088911;28;20073;-75
2022/08/07 03:24:33;;;;;;;9.40;5.45;;;;;;;9.08;100.00;102096.47;5107059;28;20035;-75
2022/08/07 03:27:03;;;;;;;8.68;5.53;;;;;;;9.05;100.00;102091.38;5088536;28;20061;-75
2022/08/07 03:29:49;;;;;;;15.00;6.05;;;;;;;9.06;100.00;102090.41;5116205;27;20020;-75
2022/08/07 03:32:33;;;;;;;9.25;5.25;;;;;;;9.05;100.00;102089.56;5104934;28;20031;-75
2022/08/07 03:35:02;;;;;;;9.13;5.20;;;;;;;9.08;100.00;102096.47;5087981;28;20548;-75
2022/08/07 03:37:31;;;;;;;33.00;6.05;;;;;;;9.09;100.00;102090.19;5105294;28;20023;-75
2022/08/07 03:39:58;;;;;;;12.55;5.75;;;;;;;9.06;100.00;102085.94;5087262;28;20023;-75
2022/08/07 03:42:24;;;;;;;11.10;5.63;;;;;;;9.09;100.00;102084.84;5105864;28;20032;-75
2022/08/07 03:44:50;;;;;;;10.20;6.80;;;;;;;9.22;100.00;102111.38;5104868;28;20031;-75
2022/08/07 03:47:16;;;;;;;;;;;;;;;9.26;100.00;102103.00;5105455;28;20030;-75
2022/08/07 03:49:45;;;;;;;8.73;5.50;;;;;;;9.24;100.00;102104.94;5105052;28;19939;-75
2022/08/07 03:52:12;;;;;;;8.60;5.38;;;;;;;9.19;100.00;102100.97;5087782;28;20491;-75
2022/08/07 03:54:37;;;;;;;;;;;;;;;9.22;100.00;102106.03;5122332;27;20035;-75
2022/08/07 03:57:06;;;;;;;9.10;5.40;;;;;;;9.21;100.00;102099.03;5105017;28;19907;-75
2022/08/07 03:59:32;;;;;;;;;;;;;;;9.21;100.00;102091.88;5104722;28;20024;-75
2022/08/07 04:01:58;;;;;;;;;;;;;;;9.23;100.00;102102.44;5105236;28;20322;-75
2022/08/07 04:04:25;;;;;;;11.75;6.07;;;;;;;9.24;100.00;102094.28;5105285;28;20332;-75
2022/08/07 04:06:56;;;;;;;11.68;5.80;;;;;;;9.23;100.00;102108.59;5088544;28;20026;-75
2022/08/07 04:09:23;;;;;;;12.00;6.45;;;;;;;9.27;100.00;102117.19;5104262;28;20035;-75
2022/08/07 04:11:49;;;;;;;;;;;;;;;9.29;100.00;102118.78;5087974;28;20023;-75
2022/08/07 04:14:16;;;;;;;8.68;5.85;;;;;;;9.25;100.00;102112.00;5087526;28;19920;-75
2022/08/07 04:16:41;;;;;;;12.18;6.00;;;;;;;9.33;100.00;102115.88;5104518;28;20016;-75
2022/08/07 04:19:07;;;;;;;17.40;7.95;;;;;;;9.49;100.00;102119.00;5103927;28;20082;-74
2022/08/07 04:21:34;;;;;;;14.75;7.30;;;;;;;9.50;100.00;102132.25;5087295;28;20114;-74
2022/08/07 04:24:02;;;;;;;13.13;7.32;;;;;;;9.56;100.00;102141.56;5087419;28;20411;-75
2022/08/07 04:26:28;;;;;;;16.30;7.57;;;;;;;9.63;100.00;102141.91;5104078;28;20476;-74
2022/08/07 04:28:54;;;;;;;13.95;8.35;;;;;;;9.67;100.00;102144.22;5087187;28;20028;-75
2022/08/07 04:31:23;;;;;;;10.13;6.80;;;;;;;9.72;100.00;102142.03;5102654;28;20020;-75
2022/08/07 04:33:48;;;;;;;20.92;6.97;;;;;;;9.73;100.00;102145.53;5121393;28;20281;-75
2022/08/07 04:36:14;;;;;;;9.02;5.10;;;;;;;9.79;100.00;102152.22;5121513;27;20035;-75
2022/08/07 04:38:41;;;;;;;10.57;6.22;;;;;;;9.76;100.00;102141.78;5103839;28;20328;-75
2022/08/07 04:41:08;;;;;;;12.82;6.13;;;;;;;9.84;100.00;102144.69;5103990;28;20573;-75
2022/08/07 04:43:43;;;;;;;13.23;6.38;;;;;;;9.93;100.00;102150.13;5087622;28;20038;-75
2022/08/07 04:46:11;;;;;;;10.27;6.70;;;;;;;10.04;100.00;102146.56;5106077;28;20488;-75
2022/08/07 04:48:53;;;;;;;13.27;6.57;;;;;;;10.14;100.00;102158.19;5088146;28;20042;-75
2022/08/07 04:51:31;;;;;;;12.88;7.20;;;;;;;10.35;100.00;102158.28;5086035;28;20107;-75
2022/08/07 04:54:06;;;;;;;10.50;6.68;;;;;;;10.56;100.00;102165.50;5104700;28;20027;-76
2022/08/07 04:57:00;;;;;;;10.80;6.75;;;;;;;10.67;100.00;102160.09;5088130;28;20027;-75
2022/08/07 04:59:35;;;;;;;12.60;7.03;;;;;;;10.82;100.00;102168.66;5104253;28;20427;-75
2022/08/07 05:02:12;;;;;;;22.20;7.53;;;;;;;10.93;100.00;102155.25;5087203;28;20020;-75
2022/08/07 05:05:05;;;;;;;11.02;7.07;;;;;;;11.15;100.00;102161.44;5106047;28;20059;-73
2022/08/07 05:07:39;;;;;;;11.13;6.75;;;;;;;11.38;100.00;102143.41;5096448;28;20027;-76
2022/08/07 05:10:29;;;;;;;9.75;6.40;;;;;;;11.60;100.00;102148.53;5103981;28;20027;-75
2022/08/07 05:12:59;;;;;;;16.65;7.15;;;;;;;11.83;100.00;102138.47;5104550;28;20077;-75
2022/08/07 05:15:34;;;;;;;11.50;6.53;;;;;;;11.95;100.00;102131.22;5104600;28;20015;-76
2022/08/07 05:18:04;;;;;;;11.10;6.60;;;;;;;12.30;100.00;102124.50;5104675;28;20031;-76
2022/08/07 05:20:33;;;;;;;12.73;5.85;;;;;;;13.04;100.00;102126.56;5095567;28;20434;-75
2022/08/07 05:23:06;;;;;;;9.13;4.95;;;;;;;14.06;100.00;102103.34;5104126;28;20024;-75
2022/08/07 05:25:32;;;;;;;6.68;5.05;;;;;;;15.35;100.00;102084.84;5097829;28;20038;-74
2022/08/07 05:28:00;;;;;;;8.02;4.90;;;;;;;15.91;100.00;101989.09;5104313;28;20579;-75
2022/08/07 05:30:28;;;;;;;8.05;5.38;;;;;;;16.52;100.00;101870.13;5086881;28;20498;-77
2022/08/07 05:32:55;;;;;;;7.15;4.40;;;;;;;16.85;100.00;101741.38;5104386;28;20030;-75
2022/08/07 05:35:22;;;;;;;7.13;4.95;;;;;;;17.12;100.00;101669.84;5104139;28;20023;-76
2022/08/07 05:37:48;;;;;;;7.55;4.60;;;;;;;17.34;100.00;101607.91;5105678;28;20142;-76
2022/08/07 05:40:15;;;;;;;7.80;3.47;;;;;;;18.23;100.00;101672.63;5089728;28;20032;-75
2022/08/07 05:42:44;;;;;;;8.63;3.78;;;;;;;19.09;100.00;101570.66;5086958;28;20058;-76
2022/08/07 05:45:11;;;;;;;7.15;3.88;;;;;;;18.26;100.00;101515.47;5107497;28;20054;-76
2022/08/07 05:47:37;;;;;;;6.07;4.53;;;;;;;16.90;100.00;101490.84;5107634;28;20081;-76
2022/08/07 05:50:04;;;;;;;18.70;5.05;;;;;;;16.64;100.00;101706.94;5106981;28;20019;-74
2022/08/07 05:52:31;;;;;;;7.78;3.65;;;;;;;17.62;100.00;101722.31;5107513;28;20054;-76
2022/08/07 05:54:57;;;;;;;7.40;4.28;;;;;;;16.96;100.00;101750.94;5107553;28;20076;-76
2022/08/07 05:57:25;;;;;;;6.70;4.25;;;;;;;17.53;100.00;101755.81;5090726;28;20038;-76
2022/08/07 05:59:53;;;;;;;7.13;4.18;;;;;;;17.06;100.00;101716.44;5106772;28;20050;-76
2022/08/07 06:02:19;;;;;;;6.50;3.35;;;;;;;18.08;100.00;101735.66;5107504;28;20037;-75
2022/08/07 06:04:51;;;;;;;8.40;3.80;;;;;;;19.21;100.00;101708.97;5090385;28;20028;-76
2022/08/07 06:07:18;;;;;;;6.15;4.05;;;;;;;19.07;100.00;101528.59;5107153;28;20028;-76
2022/08/07 06:09:44;;;;;;;8.13;4.10;;;;;;;18.84;100.00;101475.56;5106775;28;20446;-75
2022/08/07 06:12:10;;;;;;;;;;;;;;;17.76;100.00;101480.28;5090828;28;20032;-75
2022/08/07 06:14:36;;;;;;;7.63;3.97;;;;;;;18.29;100.00;101680.00;5098950;28;19952;-75
2022/08/07 06:17:03;;;;;;;5.93;3.65;;;;;;;18.68;100.00;101692.25;5090549;28;20067;-75
2022/08/07 06:19:34;;;;;;;8.95;3.45;;;;;;;20.02;100.00;101727.44;5090431;28;20100;-75
2022/08/07 06:22:00;;;;;;;;;;;;;;;20.37;89.08;101523.97;5107647;28;20472;-76
2022/08/07 06:24:26;;;;;;;6.05;4.25;;;;;;;20.15;89.36;101532.31;5107040;28;19994;-75
2022/08/07 06:26:51;;;;;;;6.50;3.37;;;;;;;20.58;84.93;101539.22;5107035;28;20134;-75
2022/08/07 06:29:16;;;;;;;4.37;3.83;;;;;;;20.60;79.96;101444.91;5089385;28;21208;-75
2022/08/07 06:31:42;;;;;;;8.32;4.05;;;;;;;20.08;82.04;101490.81;5106681;28;20027;-76
2022/08/07 06:34:07;;;;;;;5.43;3.57;;;;;;;20.37;81.85;101540.25;5106919;28;20556;-76
2022/08/07 06:36:34;;;;;;;8.57;4.30;;;;;;;20.01;78.23;101397.81;5090028;28;20080;-76
2022/08/07 06:38:59;;;;;;;7.53;3.60;;;;;;;18.66;85.73;101413.03;5089681;28;20582;-76
2022/08/07 06:41:40;;;;;;;5.95;3.42;;;;;;;17.59;100.00;101682.19;5089597;28;20289;-76
2022/08/07 06:44:09;;;;;;;6.53;4.22;;;;;;;16.97;100.00;101775.00;5106824;28;20030;-76
2022/08/07 06:46:38;;;;;;;11.05;4.32;;;;;;;17.46;100.00;101943.84;5106905;28;20396;-76
2022/08/07 06:49:05;;;;;;;7.47;4.47;;;;;;;18.64;100.00;101929.81;5085949;28;20073;-75
2022/08/07 06:51:35;;;;;;;8.40;3.78;;;;;;;18.12;100.00;101719.88;5089535;28;20499;-75
2022/08/07 06:54:07;;;;;;;8.68;3.80;;;;;;;18.91;100.00;101816.53;5106580;28;20034;-76
2022/08/07 06:56:46;;;;;;;6.30;3.75;;;;;;;18.31;99.12;101723.88;5089916;28;20028;-76
2022/08/07 06:59:26;;;;;;;7.03;3.47;;;;;;;19.36;98.16;101869.47;5106108;28;20055;-75
2022/08/07 07:01:58;;;;;;;7.82;3.85;;;;;;;20.28;86.13;101732.16;5106398;28;20035;-75
2022/08/07 07:04:25;;;;;;;7.45;3.78;;;;;;;19.93;84.76;101669.03;5106325;28;20043;-75
2022/08/07 07:06:51;;;;;;;;;;;;;;;19.23;89.58;101690.66;5106787;28;20080;-76
2022/08/07 07:09:24;;;;;;;5.22;3.67;;;;;;;19.08;91.41;101741.34;5106960;28;19951;-76
2022/08/07 07:12:05;;;;;;;4.45;3.63;;;;;;;19.15;92.09;101763.88;5106150;28;20084;-75
2022/08/07 07:14:36;;;;;;;6.90;4.00;;;;;;;19.30;90.58;101744.88;5106089;28;20069;-75
2022/08/07 07:17:09;;;;;;;4.60;3.42;;;;;;;19.43;86.96;101704.34;5089190;28;20030;-76
2022/08/07 07:19:42;;;;;;;8.27;4.40;;;;;;;19.02;90.03;101715.91;5098067;28;20122;-75
2022/08/07 07:22:10;;;;;;;5.05;3.40;;;;;;;19.53;84.77;101679.63;5106070;28;20043;-76
2022/08/07 07:24:38;;;;;;;7.00;3.83;;;;;;;20.40;81.45;101751.38;5089093;28;20360;-75
2022/08/07 07:27:08;;;;;;;6.85;3.70;;;;;;;20.79;76.46;101668.41;5107039;28;20093;-76
2022/08/07 07:29:38;;;;;;;6.78;3.60;;;;;;;20.63;78.97;101730.19;5097626;28;20039;-76
2022/08/07 07:32:07;;;;;;;4.30;3.33;;;;;;;21.41;74.97;101716.06;5105940;28;20445;-76
2022/08/07 07:34:35;;;;;;;5.13;3.60;;;;;;;21.26;71.58;101574.22;5105754;28;20880;-76
2022/08/07 07:37:03;;;;;;;6.22;4.10;;;;;;;20.54;72.24;101486.44;5105369;28;20041;-76
2022/08/07 07:39:30;;;;;;;6.25;3.60;;;;;;;20.21;76.79;101631.78;5106716;28;20027;-76
2022/08/07 07:41:56;;;;;;;5.10;3.78;;;;;;;20.65;74.91;101668.41;5106739;28;20047;-76
2022/08/07 07:44:22;;;;;;;;;;;;;;;21.13;70.86;101593.25;5106184;28;20099;-76
2022/08/07 07:46:50;;;;;;;6.57;4.07;;;;;;;21.28;70.10;101564.81;5105608;28;19919;-76
2022/08/07 07:49:18;;;;;;;4.95;3.80;;;;;;;21.39;68.55;101548.88;5087696;28;20030;-75
2022/08/07 07:51:46;;;;;;;5.18;3.88;;;;;;;21.49;67.66;101549.28;5104404;28;20027;-76
2022/08/07 07:54:13;;;;;;;5.55;3.53;;;;;;;20.51;71.08;101551.94;5105135;28;20032;-76
2022/08/07 07:56:41;;;;;;;5.72;4.25;;;;;;;21.21;69.28;101620.16;5105196;28;20032;-76
2022/08/07 07:59:08;;;;;;;6.10;4.10;;;;;;;21.42;67.48;101548.47;5088025;28;20383;-76
2022/08/07 08:01:38;;;;;;;5.60;3.50;;;;;;;21.24;65.68;101451.38;5105141;28;20036;-76
2022/08/07 08:04:07;;;;;;;5.45;3.83;;;;;;;20.66;67.46;101447.59;5105297;28;20027;-75
2022/08/07 08:06:33;;;;;;;8.95;4.03;;;;;;;21.13;66.53;101509.06;5106516;28;20783;-76
2022/08/07 08:09:02;;;;;;;5.03;4.53;;;;;;;21.59;65.61;101541.50;5104561;28;20024;-77
2022/08/07 08:11:29;;;;;;;5.40;3.63;;;;;;;21.42;64.58;101473.28;5087783;28;20099;-76
2022/08/07 08:13:54;;;;;;;4.88;2.95;;;;;;;21.65;63.86;101509.91;5106094;28;20028;-76
2022/08/07 08:16:23;;;;;;;6.93;3.97;;;;;;;19.95;67.27;101374.28;5087957;28;20019;-76
2022/08/07 08:18:53;;;;;;;7.47;4.53;;;;;;;21.05;67.69;101608.72;5106052;28;20658;-75
2022/08/07 08:27:10;;;;;;;;;;;;;;;20.46;64.80;101357.28;5116708;27;20032;-76
2022/08/07 08:29:43;;;;;;;5.00;4.15;;;;;;;18.95;68.71;101312.69;5105482;28;20006;-77
2022/08/07 08:32:10;;;;;;;6.32;3.10;;;;;;;19.96;72.05;101671.31;5105924;28;20725;-77
2022/08/07 08:34:39;;;;;;;6.15;3.90;;;;;;;20.56;66.42;101489.78;5104702;28;20015;-77
2022/08/07 08:37:06;;;;;;;5.53;3.67;;;;;;;21.12;65.37;101575.25;5104729;28;20065;-76
2022/08/07 08:39:33;;;;;;;6.97;3.80;;;;;;;21.56;61.60;101441.41;5104023;28;20023;-76
2022/08/07 08:42:05;;;;;;;4.85;3.55;;;;;;;22.16;60.52;101506.22;5104344;28;20084;-76
2022/08/07 08:44:34;;;;;;;4.68;3.50;;;;;;;22.01;59.28;101400.53;5097387;28;20492;-76
2022/08/07 08:47:20;;;;;;;4.80;3.78;;;;;;;22.77;57.92;101486.44;5105663;28;20077;-77
2022/08/07 08:49:57;;;;;;;6.15;3.50;;;;;;;22.47;55.57;101186.22;5099014;28;20063;-76
2022/08/07 08:52:47;;;;;;;6.10;4.47;;;;;;;22.50;54.42;101131.34;5104908;28;20124;-76
2022/08/07 08:55:26;;;;;;;4.97;3.20;;;;;;;22.91;55.02;101328.41;5103728;28;20051;-75
2022/08/07 08:58:05;;;;;;;4.75;3.65;;;;;;;21.50;56.18;101089.97;5105766;28;20089;-76
2022/08/07 09:00:38;;;;;;;4.95;3.78;;;;;;;21.71;56.71;101215.56;5095753;28;20040;-76
2022/08/07 09:03:26;;;;;;;4.82;3.45;;;;;;;22.41;55.86;101315.84;5105203;28;20031;-75
2022/08/07 09:06:03;;;;;;;5.22;3.28;;;;;;;22.86;55.05;101284.72;5104383;28;20039;-77
2022/08/07 09:08:46;;;;;;;6.30;3.55;;;;;;;23.02;53.18;101177.06;5112947;28;20040;-76
2022/08/07 09:11:19;;;;;;;5.45;3.33;;;;;;;21.46;55.99;101144.97;5105205;28;20028;-77
2022/08/07 09:14:06;;;;;;;3.90;3.10;;;;;;;22.17;54.57;101222.34;5107088;28;20028;-76
2022/08/07 09:16:46;;;;;;;4.43;3.17;;;;;;;22.68;53.03;101193.03;5101377;28;20155;-77
2022/08/07 09:19:29;;;;;;;5.55;4.47;;;;;;;23.45;52.67;101334.75;5107788;28;20031;-77
2022/08/07 09:22:19;;;;;;;5.72;3.58;;;;;;;23.69;52.61;101375.66;5107605;28;20472;-77
2022/08/07 09:24:57;;;;;;;4.75;3.13;;;;;;;24.22;49.96;101241.09;5104327;28;20035;-76
2022/08/07 09:27:39;;;;;;;5.97;3.70;;;;;;;23.59;48.69;100940.22;5109279;28;20415;-75
2022/08/07 09:30:06;;;;;;;4.05;3.13;;;;;;;23.78;50.05;101159.75;5108433;28;20020;-76
2022/08/07 09:33:00;;;;;;;6.53;3.13;;;;;;;24.19;48.02;101039.75;5108056;28;20019;-77
2022/08/07 09:35:36;;;;;;;5.32;3.10;;;;;;;23.93;48.87;101068.47;5107830;28;20616;-76
2022/08/07 09:38:12;;;;;;;3.88;3.17;;;;;;;24.48;49.32;101228.00;5107794;28;20628;-77
2022/08/07 09:40:41;;;;;;;6.25;3.28;;;;;;;23.69;49.17;101013.97;5101462;28;20119;-76
2022/08/07 09:43:13;;;;;;;5.85;3.10;;;;;;;23.92;47.84;100946.81;5107671;28;20030;-77
2022/08/07 09:45:49;;;;;;;6.55;4.00;;;;;;;22.76;50.15;100929.53;5108946;28;20084;-77
2022/08/07 09:48:36;;;;;;;6.40;3.40;;;;;;;24.58;47.99;101189.97;5108880;28;20074;-77
2022/08/07 09:51:30;;;;;;;4.80;3.72;;;;;;;25.62;47.31;101318.00;5107700;28;20023;-77
2022/08/07 09:54:01;;;;;;;4.05;3.22;;;;;;;24.85;46.52;101026.34;5105427;28;20036;-76
2022/08/07 09:56:45;;;;;;;3.90;3.33;;;;;;;23.39;47.53;100785.38;5107593;28;20027;-76
2022/08/07 09:59:29;;;;;;;3.42;3.13;;;;;;;22.24;51.43;100981.13;5108403;28;20070;-77
2022/08/07 10:02:12;;;;;;;4.00;3.28;;;;;;;21.76;52.19;100937.72;5107344;28;20438;-75
2022/08/07 10:04:44;;;;;;;3.40;3.10;;;;;;;21.85;52.72;101015.16;5101398;28;20039;-76
2022/08/07 10:07:37;;;;;;;5.80;3.65;;;;;;;22.26;53.94;101218.28;5107961;28;20050;-77
2022/08/07 10:10:17;;;;;;;3.78;3.17;;;;;;;22.04;54.58;101231.50;5107955;28;20059;-74
2022/08/07 10:13:00;;;;;;;5.80;3.30;;;;;;;21.41;52.94;100909.38;5104134;28;20028;-76
2022/08/07 10:15:52;;;;;;;4.88;3.20;;;;;;;21.06;55.44;101053.88;5124639;27;20054;-77
2022/08/07 10:18:39;;;;;;;3.17;2.83;;;;;;;21.18;56.33;101161.72;5108692;28;20036;-75
2022/08/07 10:21:14;;;;;;;3.55;3.00;;;;;;;21.07;57.70;101236.56;5107471;28;20088;-76
2022/08/07 10:24:06;;;;;;;6.65;3.10;;;;;;;21.23;57.28;101265.88;5106653;28;20514;-77
2022/08/07 10:26:59;;;;;;;3.75;3.35;;;;;;;21.20;56.49;101162.34;5105958;28;20027;-77
2022/08/07 10:29:54;;;;;;;5.68;3.78;;;;;;;21.46;56.03;101212.88;5123903;27;20024;-78
2022/08/07 10:32:36;;;;;;;4.83;3.20;;;;;;;21.43;56.88;101273.91;5098312;28;20051;-77
2022/08/07 10:35:06;;;;;;;5.18;3.50;;;;;;;21.61;54.50;101128.31;5109142;28;20603;-77
2022/08/07 10:37:54;;;;;;;6.10;3.40;;;;;;;22.87;55.29;101487.81;5108318;27;20030;-77
2022/08/07 10:40:27;;;;;;;5.93;4.10;;;;;;;24.39;53.66;101656.78;5108904;28;20119;-78
2022/08/07 10:43:00;;;;;;;5.75;3.50;;;;;;;23.65;49.92;101056.44;5107492;28;20083;-76
2022/08/07 10:45:41;;;;;;;7.38;3.50;;;;;;;23.04;50.65;101055.97;5106862;28;20023;-77
2022/08/07 10:48:31;;;;;;;5.63;3.95;;;;;;;22.37;53.11;101128.84;5108712;28;20134;-77
2022/08/07 10:51:15;;;;;;;5.07;4.07;;;;;;;22.29;54.04;101204.25;5108237;28;20015;-77
2022/08/07 10:53:59;;;;;;;4.53;3.60;;;;;;;21.69;55.63;101204.09;5102264;28;20131;-78
2022/08/07 10:56:44;;;;;;;3.85;3.38;;;;;;;21.90;57.78;101399.34;5109030;28;20468;-77
2022/08/07 10:59:38;;;;;;;7.30;4.03;;;;;;;21.25;57.89;101243.94;5108182;28;20031;-78
2022/08/07 11:02:17;;;;;;;6.25;4.10;;;;;;;20.86;58.59;101229.59;5108462;28;20039;-77
2022/08/07 11:05:21;;;;;;;5.18;4.28;;;;;;;21.23;60.97;101445.09;5108743;27;20035;-77
2022/08/07 11:08:01;;;;;;;5.50;3.87;;;;;;;21.21;61.35;101451.81;5079425;28;20043;-77
2022/08/07 11:11:05;;;;;;;6.88;3.60;;;;;;;20.90;60.76;101328.53;5107602;28;20410;-77
2022/08/07 11:13:52;;;;;;;6.50;3.93;;;;;;;20.71;62.12;101364.75;5090924;28;20031;-76
2022/08/07 11:16:25;;;;;;;3.92;3.22;;;;;;;20.19;64.52;101391.75;5088526;28;20347;-76
2022/08/07 11:18:57;;;;;;;6.35;4.03;;;;;;;20.24;66.64;101517.50;5107158;28;20038;-77
2022/08/07 11:21:45;;;;;;;5.85;4.38;;;;;;;20.50;64.18;101430.94;5105950;28;20043;-77
2022/08/07 11:24:19;;;;;;;4.03;3.60;;;;;;;20.60;65.42;101524.44;5089442;28;20043;-77
2022/08/07 11:26:52;;;;;;;7.55;4.38;;;;;;;20.41;65.16;101462.84;5106448;28;20027;-77
2022/08/07 11:29:26;;;;;;;10.63;4.47;;;;;;;19.91;68.16;101476.81;5089070;28;20176;-78
2022/08/07 11:32:16;;;;;;;6.28;4.38;;;;;;;19.46;67.73;101338.41;5106576;28;20035;-77
2022/08/07 11:34:54;;;;;;;9.25;4.50;;;;;;;19.95;70.91;101607.34;5099277;28;20122;-77
2022/08/07 11:37:38;;;;;;;5.82;4.25;;;;;;;20.85;66.85;101606.00;5108066;28;20123;-76
2022/08/07 11:40:32;;;;;;;7.20;4.68;;;;;;;21.53;66.35;101720.84;5089208;28;20781;-77
2022/08/07 11:43:33;;;;;;;4.95;4.18;;;;;;;23.25;59.67;101677.44;5119844;27;20130;-76
2022/08/07 11:46:32;;;;;;;9.00;4.38;;;;;;;22.81;57.31;101417.97;5050669;28;20086;-78
2022/08/07 11:49:12;;;;;;;7.22;3.47;;;;;;;22.29;58.37;101386.50;5075173;28;20393;-75
2022/08/07 11:51:56;;;;;;;4.18;3.72;;;;;;;23.36;55.86;101404.25;5103431;28;20020;-76
2022/08/07 11:54:52;;;;;;;6.55;3.90;;;;;;;21.65;55.73;101026.28;5108733;28;20035;-78